createdAt,value
2022-09-22T05:42:38.535Z,2.27
2022-09-22T06:02:26.158Z,2.80
2022-09-22T06:04:40.139Z,3.53
2022-09-22T06:13:42.953Z,3.20
2022-09-22T06:40:29.568Z,3.97
2022-09-22T06:42:36.177Z,3.75
2022-09-22T06:50:06.053Z,4.47
2022-09-22T06:52:31.047Z,4.03
2022-09-22T06:58:10.433Z,4.28
2022-09-22T07:03:56.389Z,4.43
2022-09-22T07:06:08.751Z,2.80
2022-09-22T07:11:45.720Z,3.15
2022-09-22T07:17:35.414Z,3.22
2022-09-22T07:22:27.159Z,2.75
2022-09-22T07:24:33.509Z,3.08
2022-09-22T07:26:44.209Z,2.78
2022-09-22T07:29:02.332Z,2.67
2022-09-22T07:31:15.845Z,3.10
2022-09-22T07:34:34.827Z,2.72
2022-09-22T07:40:54.685Z,3.08
2022-09-22T07:43:12.779Z,2.95
2022-09-22T07:45:15.591Z,3.08
2022-09-22T07:56:54.268Z,3.22
2022-09-22T08:05:47.403Z,3.03
2022-09-22T08:07:50.822Z,2.47
2022-09-22T08:10:06.314Z,2.63
2022-09-22T08:12:11.508Z,2.80
2022-09-22T08:14:17.446Z,2.30
2022-09-22T08:16:30.313Z,2.67
2022-09-22T08:18:39.940Z,2.88
2022-09-22T08:26:17.959Z,2.97
2022-09-22T08:28:41.805Z,2.65
2022-09-22T08:31:00.937Z,2.72
2022-09-22T08:33:04.746Z,2.88
2022-09-22T08:35:42.308Z,2.75
2022-09-22T08:37:45.908Z,3.05
2022-09-22T08:39:58.738Z,2.33
2022-09-22T08:42:18.412Z,2.60
2022-09-22T08:51:22.097Z,2.70
2022-09-22T08:53:43.563Z,2.90
2022-09-22T08:56:30.141Z,3.25
2022-09-22T08:59:02.465Z,2.97
2022-09-22T09:01:31.086Z,4.15
2022-09-22T09:03:51.621Z,2.90
2022-09-22T09:06:07.531Z,2.60
2022-09-22T09:08:37.989Z,2.28
2022-09-22T09:11:12.145Z,1.85
2022-09-22T09:13:37.335Z,2.33
2022-09-22T09:15:47.367Z,2.20
2022-09-22T09:18:00.372Z,2.20
2022-09-22T09:23:12.186Z,2.30
2022-09-22T09:25:27.792Z,2.05
2022-09-22T09:27:34.662Z,2.25
2022-09-22T09:30:23.152Z,2.35
2022-09-22T09:33:26.012Z,1.98
2022-09-22T09:35:53.841Z,2.35
2022-09-22T09:38:22.133Z,2.63
2022-09-22T09:43:24.234Z,2.20
2022-09-22T09:45:42.585Z,2.00
2022-09-22T09:47:59.099Z,2.30
2022-09-22T09:52:58.442Z,2.10
2022-09-22T09:55:26.763Z,2.10
2022-09-22T09:58:38.638Z,1.88
2022-09-22T10:00:55.451Z,2.00
2022-09-22T10:03:16.125Z,1.98
2022-09-22T10:05:29.899Z,1.92
2022-09-22T10:07:41.770Z,1.85
2022-09-22T10:09:47.932Z,1.90
2022-09-22T10:12:08.792Z,1.75
2022-09-22T10:14:19.126Z,1.80
2022-09-22T10:16:24.136Z,1.90
2022-09-22T10:18:34.414Z,2.17
2022-09-22T10:20:42.189Z,2.13
2022-09-22T10:22:45.841Z,2.00
2022-09-22T10:25:25.608Z,1.77
2022-09-22T10:28:14.490Z,2.03
2022-09-22T10:30:50.422Z,1.73
2022-09-22T10:33:16.846Z,1.88
2022-09-22T10:38:46.835Z,2.30
2022-09-22T10:41:18.301Z,2.03
2022-09-22T10:44:38.082Z,2.00
2022-09-22T10:47:06.337Z,2.20
2022-09-22T10:49:37.534Z,1.92
2022-09-22T10:51:55.061Z,1.63
2022-09-22T10:54:28.730Z,2.05
2022-09-22T10:57:20.655Z,1.75
2022-09-22T10:59:45.403Z,2.10
2022-09-22T11:02:34.503Z,1.77
2022-09-22T11:04:53.820Z,1.65
2022-09-22T11:07:43.450Z,1.63
2022-09-22T11:10:09.959Z,1.63
2022-09-22T11:12:22.291Z,1.70
2022-09-22T11:15:06.183Z,1.70
2022-09-22T11:17:50.757Z,1.58
2022-09-22T11:20:42.667Z,1.60
2022-09-22T11:23:22.790Z,1.83
2022-09-22T11:25:44.249Z,1.42
2022-09-22T11:30:58.415Z,1.50
2022-09-22T11:34:08.565Z,1.27
2022-09-22T11:36:58.924Z,1.35
2022-09-22T11:42:14.484Z,1.20
2022-09-22T11:50:28.032Z,1.60
2022-09-22T11:52:43.849Z,1.10
2022-09-22T11:55:18.531Z,1.08
2022-09-22T11:57:38.220Z,1.23
2022-09-22T11:59:43.338Z,1.50
2022-09-22T12:01:55.019Z,1.10
2022-09-22T12:04:08.227Z,1.15
2022-09-22T12:06:18.401Z,1.40
2022-09-22T12:11:13.710Z,1.30
2022-09-22T12:13:33.280Z,1.40
2022-09-22T12:15:47.556Z,1.38
2022-09-22T12:17:57.038Z,1.45
2022-09-22T12:20:19.842Z,1.00
2022-09-22T12:25:08.033Z,1.45
2022-09-22T12:31:45.662Z,1.48
2022-09-22T12:34:44.396Z,1.45
2022-09-22T12:36:50.676Z,1.40
2022-09-22T12:41:28.099Z,1.10
2022-09-22T12:43:51.309Z,1.00
2022-09-22T12:46:12.759Z,1.30
2022-09-22T12:48:31.201Z,1.55
2022-09-22T12:50:39.831Z,1.30
2022-09-22T12:53:50.237Z,1.10
2022-09-22T12:56:52.466Z,1.27
2022-09-22T13:06:15.741Z,1.30
2022-09-22T13:16:02.352Z,1.13
2022-09-22T13:18:27.216Z,1.35
2022-09-22T13:20:38.392Z,1.30
2022-09-22T13:22:57.200Z,1.10
2022-09-22T13:31:46.107Z,1.50
2022-09-22T13:35:06.824Z,1.55
2022-09-22T13:46:23.130Z,1.25
2022-09-22T13:52:07.939Z,1.20
2022-09-22T13:54:29.797Z,1.35
2022-09-22T14:00:55.189Z,1.23
2022-09-22T14:03:12.220Z,1.08
2022-09-22T14:06:19.050Z,1.00
2022-09-22T14:08:41.943Z,1.27
2022-09-22T14:11:04.751Z,1.30
2022-09-22T14:13:48.343Z,1.40
2022-09-22T14:17:04.728Z,1.55
2022-09-22T14:38:50.404Z,1.48
2022-09-22T15:00:39.993Z,1.25
2022-09-22T15:03:29.376Z,1.10
2022-09-22T15:05:34.350Z,0.98
2022-09-22T15:15:17.290Z,1.00
2022-09-22T15:20:59.544Z,1.17
2022-09-22T15:23:29.411Z,1.10
2022-09-22T15:26:14.167Z,1.23
2022-09-22T15:28:28.539Z,1.25
2022-09-22T15:33:29.481Z,1.00
2022-09-22T15:36:09.980Z,1.05
2022-09-22T15:38:39.208Z,1.02
2022-09-22T15:50:33.870Z,0.90
2022-09-22T15:53:03.518Z,1.20
2022-09-22T15:58:43.723Z,1.40
2022-09-22T15:58:49.852Z,1.02
2022-09-22T16:01:28.084Z,1.00
2022-09-22T16:06:25.398Z,1.02
2022-09-22T16:08:55.287Z,0.80
2022-09-22T16:11:23.340Z,1.10
2022-09-22T16:13:50.983Z,1.13
2022-09-22T16:16:11.128Z,1.00
2022-09-22T16:18:17.898Z,0.95
2022-09-22T16:20:24.188Z,1.10
2022-09-22T16:22:39.501Z,1.27
2022-09-22T16:25:33.944Z,1.40
2022-09-22T16:33:58.187Z,1.10
2022-09-22T16:37:01.993Z,1.20
2022-09-22T16:42:42.836Z,1.10
2022-09-22T16:46:01.684Z,1.00
2022-09-22T16:58:13.784Z,1.35
2022-09-22T17:01:20.965Z,1.63
2022-09-22T17:25:12.463Z,1.40
2022-09-22T17:28:08.247Z,1.83
2022-09-22T17:31:19.494Z,1.48
2022-09-22T17:38:00.514Z,1.40
2022-09-22T18:15:35.905Z,1.80
2022-09-22T18:36:14.486Z,2.60
2022-09-22T18:41:19.192Z,3.00
2022-09-22T18:46:48.133Z,2.72
2022-09-22T18:57:51.880Z,2.88
2022-09-22T19:03:54.368Z,2.50
2022-09-22T19:17:20.044Z,2.88
2022-09-22T19:27:02.212Z,2.75
2022-09-22T19:46:15.972Z,2.40
2022-09-22T20:14:34.732Z,2.25
2022-09-22T21:26:39.940Z,2.20
2022-09-22T21:32:40.194Z,2.07
2022-09-22T21:35:33.690Z,2.17
2022-09-22T22:40:28.949Z,2.27
2022-09-22T22:43:39.856Z,2.67
2022-09-22T22:46:22.755Z,2.67
2022-09-22T22:54:33.672Z,2.43
